Terminal Aerodrome Forecast
Issued by NWS

Home | Current Version | Previous Version | Text Only | Print | Product List | Glossary On
Versions: 1 2 3 4 5 6 7 8 9 10 11 12 13 14 15 16 17 18 19 20 21
000
FTUS46 KHNX 281120
TAFFAT
TAF
KFAT 281120Z 2812/2912 VRB03KT 1/4SM FG OVC001
     FM281800 VRB04KT 3SM HZ BKN200
     FM282100 VRB04KT P6SM BKN200
     FM290600 VRB03KT 3SM BR BKN200=

USA.gov is the U.S. government's official web portal to all federal, state and local government web resources and services.